createdAt,value
2018-11-27T00:00:21.784Z,6.19
2018-11-27T00:01:21.771Z,6.19
2018-11-27T00:02:21.762Z,6.19
2018-11-27T00:03:21.810Z,6.22
2018-11-27T00:04:21.740Z,6.18
2018-11-27T00:05:21.733Z,6.25
2018-11-27T00:06:21.722Z,6.19
2018-11-27T00:07:21.710Z,6.21
2018-11-27T00:08:21.770Z,6.27
2018-11-27T00:09:22.653Z,6.15
2018-11-27T00:10:21.680Z,6.22
2018-11-27T00:11:21.671Z,6.22
2018-11-27T00:12:21.665Z,6.19
2018-11-27T00:13:21.714Z,6.21
2018-11-27T00:14:21.641Z,6.18
2018-11-27T00:15:21.634Z,6.22
2018-11-27T00:16:21.620Z,6.30
2018-11-27T00:17:21.612Z,6.18
2018-11-27T00:18:21.655Z,6.21
2018-11-27T00:19:21.596Z,6.15
2018-11-27T00:20:21.579Z,6.27
2018-11-27T00:21:21.563Z,6.21
2018-11-27T00:22:21.555Z,6.22
2018-11-27T00:23:21.608Z,6.22
2018-11-27T00:24:21.534Z,6.17
2018-11-27T00:25:21.524Z,6.21
2018-11-27T00:26:21.515Z,6.14
2018-11-27T00:27:21.505Z,6.17
2018-11-27T00:28:21.555Z,6.28
2018-11-27T00:29:21.483Z,6.19
2018-11-27T00:30:22.144Z,6.18
2018-11-27T00:31:21.483Z,6.12
2018-11-27T00:32:21.450Z,6.14
2018-11-27T00:33:21.502Z,6.15
2018-11-27T00:34:21.426Z,6.14
2018-11-27T00:35:21.422Z,6.12
2018-11-27T00:36:21.405Z,6.14
2018-11-27T00:37:21.399Z,6.15
2018-11-27T00:38:21.459Z,6.12
2018-11-27T00:39:21.378Z,6.14
2018-11-27T00:40:21.366Z,6.12
2018-11-27T00:41:21.357Z,6.03
2018-11-27T00:42:21.342Z,6.03
2018-11-27T00:43:21.336Z,5.93
2018-11-27T00:44:21.387Z,6.06
2018-11-27T00:45:21.312Z,6.00
2018-11-27T00:46:21.301Z,6.03
2018-11-27T00:47:21.291Z,6.03
2018-11-27T00:48:21.283Z,6.04
2018-11-27T00:49:21.333Z,6.01
2018-11-27T00:50:21.259Z,6.04
2018-11-27T00:51:22.143Z,6.04
2018-11-27T00:52:21.235Z,6.00
2018-11-27T00:53:21.226Z,5.86
2018-11-27T00:54:21.275Z,5.90
2018-11-27T00:55:21.208Z,5.93
2018-11-27T00:56:21.207Z,5.94
2018-11-27T00:57:21.179Z,5.94
2018-11-27T00:58:21.175Z,5.93
2018-11-27T00:59:21.243Z,5.90
2018-11-27T01:00:21.151Z,5.83
2018-11-27T01:01:21.142Z,5.89
2018-11-27T01:02:21.137Z,5.91
2018-11-27T01:03:21.127Z,5.89
2018-11-27T01:04:21.176Z,5.83
2018-11-27T01:05:21.111Z,5.89
2018-11-27T01:06:21.107Z,5.82
2018-11-27T01:07:21.079Z,5.81
2018-11-27T01:08:21.073Z,5.78
2018-11-27T01:09:21.128Z,5.83
2018-11-27T01:10:21.051Z,5.79
2018-11-27T01:11:21.043Z,5.83
2018-11-27T01:12:21.639Z,5.83
2018-11-27T01:13:21.020Z,5.85
2018-11-27T01:14:21.066Z,5.85
2018-11-27T01:15:21.003Z,5.81
2018-11-27T01:16:20.989Z,5.72
2018-11-27T01:17:20.991Z,5.82
2018-11-27T01:18:20.963Z,5.83
2018-11-27T01:19:21.015Z,5.78
2018-11-27T01:20:20.951Z,5.83
2018-11-27T01:21:20.936Z,5.83
2018-11-27T01:22:20.929Z,5.78
2018-11-27T01:23:20.914Z,5.83
2018-11-27T01:24:20.964Z,5.78
2018-11-27T01:25:20.893Z,5.79
2018-11-27T01:26:20.882Z,5.79
2018-11-27T01:27:20.873Z,5.86
2018-11-27T01:28:20.863Z,5.82
2018-11-27T01:29:20.916Z,5.89
2018-11-27T01:30:20.860Z,5.79
2018-11-27T01:31:20.833Z,5.89
2018-11-27T01:32:20.818Z,5.82
2018-11-27T01:33:21.639Z,5.76
2018-11-27T01:34:20.863Z,5.75
2018-11-27T01:35:20.789Z,5.82
2018-11-27T01:36:20.777Z,5.83
2018-11-27T01:37:21.637Z,5.78
2018-11-27T01:38:20.762Z,5.83
2018-11-27T01:39:20.808Z,5.83
2018-11-27T01:40:20.739Z,5.76
2018-11-27T01:41:20.727Z,5.78
2018-11-27T01:42:20.718Z,5.79
2018-11-27T01:43:20.702Z,5.79
2018-11-27T01:44:20.757Z,5.81
2018-11-27T01:45:20.686Z,5.83
2018-11-27T01:46:20.678Z,5.83
2018-11-27T01:47:20.666Z,5.75
2018-11-27T01:48:20.652Z,5.83
2018-11-27T01:49:20.704Z,5.72
2018-11-27T01:50:20.648Z,5.75
2018-11-27T01:51:20.627Z,5.75
2018-11-27T01:52:20.610Z,5.78
2018-11-27T01:53:20.602Z,5.75
2018-11-27T01:54:20.709Z,5.75
2018-11-27T01:55:20.590Z,5.75
2018-11-27T01:56:20.576Z,5.78
2018-11-27T01:57:20.565Z,5.83
2018-11-27T01:58:20.553Z,5.79
2018-11-27T01:59:20.607Z,5.81
2018-11-27T02:00:20.535Z,5.81
2018-11-27T02:01:20.520Z,5.76
2018-11-27T02:02:20.508Z,5.79
2018-11-27T02:03:20.499Z,5.79
2018-11-27T02:04:20.564Z,5.81
2018-11-27T02:05:20.476Z,5.74
2018-11-27T02:06:20.491Z,5.74
2018-11-27T02:07:20.455Z,5.82
2018-11-27T02:08:20.447Z,5.81
2018-11-27T02:09:20.497Z,5.81
2018-11-27T02:10:20.425Z,5.78
2018-11-27T02:11:20.416Z,5.74
2018-11-27T02:12:20.404Z,5.82
2018-11-27T02:13:20.393Z,5.81
2018-11-27T02:14:20.441Z,5.74
2018-11-27T02:15:21.132Z,5.78
2018-11-27T02:16:20.362Z,5.71
2018-11-27T02:17:20.369Z,5.81
2018-11-27T02:18:20.351Z,5.82
2018-11-27T02:19:20.396Z,5.82
2018-11-27T02:20:20.318Z,5.78
2018-11-27T02:21:20.310Z,5.81
2018-11-27T02:22:20.323Z,5.72
2018-11-27T02:23:20.289Z,5.81
2018-11-27T02:24:20.340Z,5.79
2018-11-27T02:25:20.267Z,5.74
2018-11-27T02:26:20.258Z,5.81
2018-11-27T02:27:20.249Z,5.75
2018-11-27T02:28:20.243Z,5.74
2018-11-27T02:29:20.292Z,5.67
2018-11-27T02:30:20.222Z,5.71
2018-11-27T02:31:20.234Z,5.79
2018-11-27T02:32:20.204Z,5.74
2018-11-27T02:33:20.261Z,5.79
2018-11-27T02:34:20.260Z,5.76
2018-11-27T02:35:20.169Z,5.78
2018-11-27T02:36:21.132Z,5.74
2018-11-27T02:37:20.158Z,5.74
2018-11-27T02:38:20.133Z,5.74
2018-11-27T02:39:20.195Z,5.71
2018-11-27T02:40:20.117Z,5.74
2018-11-27T02:41:20.155Z,5.71
2018-11-27T02:42:20.126Z,5.81
2018-11-27T02:43:20.082Z,5.76
2018-11-27T02:44:20.073Z,5.82
2018-11-27T02:45:20.130Z,5.68
2018-11-27T02:46:20.059Z,5.72
2018-11-27T02:47:20.045Z,5.75
2018-11-27T02:48:20.036Z,5.75
2018-11-27T02:49:20.024Z,5.71
2018-11-27T02:50:20.074Z,5.75
2018-11-27T02:51:20.001Z,5.68
2018-11-27T02:52:19.991Z,5.68
2018-11-27T02:53:19.983Z,5.76
2018-11-27T02:54:19.976Z,5.75
2018-11-27T02:55:20.022Z,5.78
2018-11-27T02:56:19.948Z,5.65
2018-11-27T02:57:20.634Z,5.72
2018-11-27T02:58:19.928Z,5.74
2018-11-27T02:59:19.917Z,5.74
2018-11-27T03:00:19.969Z,5.65
2018-11-27T03:01:19.897Z,5.72
2018-11-27T03:02:19.888Z,5.68
2018-11-27T03:03:19.875Z,5.72
2018-11-27T03:04:19.866Z,5.64
2018-11-27T03:05:19.928Z,5.67
2018-11-27T03:06:19.848Z,5.64
2018-11-27T03:07:19.834Z,5.68
2018-11-27T03:08:19.838Z,5.64
2018-11-27T03:09:19.814Z,5.60
2018-11-27T03:10:19.863Z,5.67
2018-11-27T03:11:19.797Z,5.63
2018-11-27T03:12:19.789Z,5.64
2018-11-27T03:13:19.776Z,5.67
2018-11-27T03:14:19.761Z,5.64
2018-11-27T03:15:19.818Z,5.56
2018-11-27T03:16:19.746Z,5.60
2018-11-27T03:17:19.747Z,5.60
2018-11-27T03:18:21.636Z,5.51
2018-11-27T03:19:19.718Z,5.60
2018-11-27T03:20:19.763Z,5.60
2018-11-27T03:21:19.704Z,5.51
2018-11-27T03:22:19.682Z,5.51
2018-11-27T03:23:19.672Z,5.57
2018-11-27T03:24:19.667Z,5.53
2018-11-27T03:25:19.716Z,5.56
2018-11-27T03:26:19.638Z,5.53
2018-11-27T03:27:19.632Z,5.51
2018-11-27T03:28:19.617Z,5.40
2018-11-27T03:29:19.627Z,5.54
2018-11-27T03:30:19.661Z,5.60
2018-11-27T03:31:19.589Z,5.57
2018-11-27T03:32:19.595Z,5.53
2018-11-27T03:33:19.576Z,5.46
2018-11-27T03:34:19.555Z,5.43
2018-11-27T03:35:19.625Z,5.57
2018-11-27T03:36:19.536Z,5.48
2018-11-27T03:37:19.525Z,5.43
2018-11-27T03:38:19.518Z,5.42
2018-11-27T03:39:20.121Z,5.45
2018-11-27T03:40:19.559Z,5.48
2018-11-27T03:41:19.483Z,5.43
2018-11-27T03:42:19.474Z,5.45
2018-11-27T03:43:19.483Z,5.46
2018-11-27T03:44:19.453Z,5.45
2018-11-27T03:45:19.509Z,5.45
2018-11-27T03:46:19.435Z,5.45
2018-11-27T03:47:19.428Z,5.42
2018-11-27T03:48:19.414Z,5.42
2018-11-27T03:49:19.402Z,5.39
2018-11-27T03:50:19.449Z,5.39
2018-11-27T03:51:19.387Z,5.42
2018-11-27T03:52:19.375Z,5.39
2018-11-27T03:53:19.365Z,5.36
2018-11-27T03:54:19.355Z,5.35
2018-11-27T03:55:19.397Z,5.43
2018-11-27T03:56:19.335Z,5.38
2018-11-27T03:57:19.318Z,5.33
2018-11-27T03:58:19.308Z,5.35
2018-11-27T03:59:19.300Z,5.36
2018-11-27T04:00:19.688Z,5.28
2018-11-27T04:01:19.279Z,5.35
2018-11-27T04:02:19.269Z,5.25
2018-11-27T04:03:19.257Z,5.31
2018-11-27T04:04:19.249Z,5.20
2018-11-27T04:05:19.302Z,5.24
2018-11-27T04:06:19.250Z,5.15
2018-11-27T04:07:19.225Z,5.21
2018-11-27T04:08:19.223Z,5.24
2018-11-27T04:09:19.196Z,5.10
2018-11-27T04:10:19.252Z,5.10
2018-11-27T04:11:19.172Z,5.21
2018-11-27T04:12:19.165Z,5.10
2018-11-27T04:13:19.159Z,5.13
2018-11-27T04:14:19.145Z,5.13
2018-11-27T04:15:19.202Z,5.20
2018-11-27T04:16:19.123Z,5.18
2018-11-27T04:17:19.112Z,5.15
2018-11-27T04:18:19.104Z,4.99
2018-11-27T04:19:19.092Z,5.04
2018-11-27T04:20:19.144Z,5.04
2018-11-27T04:21:19.622Z,5.15
2018-11-27T04:22:19.059Z,5.03
2018-11-27T04:24:14.788Z,5.02
2018-11-27T04:25:14.813Z,5.04
2018-11-27T04:26:14.709Z,5.10
2018-11-27T04:27:14.707Z,5.06
2018-11-27T04:28:14.692Z,5.07
2018-11-27T04:29:14.678Z,5.03
2018-11-27T04:30:14.746Z,4.96
2018-11-27T04:31:14.732Z,5.03
2018-11-27T04:32:14.641Z,5.09
2018-11-27T04:33:14.639Z,5.04
2018-11-27T04:34:14.622Z,5.03
2018-11-27T04:35:14.633Z,4.94
2018-11-27T04:36:14.662Z,4.89
2018-11-27T04:37:14.592Z,5.00
2018-11-27T04:38:14.612Z,4.96
2018-11-27T04:39:15.371Z,4.92
2018-11-27T04:40:14.563Z,4.86
2018-11-27T04:41:14.606Z,4.92
2018-11-27T04:42:15.373Z,4.88
2018-11-27T04:43:14.532Z,4.89
2018-11-27T04:44:14.518Z,4.86
2018-11-27T04:45:14.521Z,4.88
2018-11-27T04:46:14.558Z,4.82
2018-11-27T04:47:14.484Z,4.73
2018-11-27T04:48:14.474Z,4.84
2018-11-27T04:49:14.470Z,4.80
2018-11-27T04:50:14.457Z,4.82
2018-11-27T04:51:14.509Z,4.84
2018-11-27T04:52:14.433Z,4.84
2018-11-27T04:53:14.425Z,4.86
2018-11-27T04:54:14.411Z,4.75
2018-11-27T04:55:14.401Z,4.75
2018-11-27T04:56:14.458Z,4.73
2018-11-27T04:57:14.380Z,4.75
2018-11-27T04:58:14.371Z,4.80
2018-11-27T04:59:14.359Z,4.69
2018-11-27T05:00:14.353Z,4.75
2018-11-27T05:01:14.400Z,4.63
2018-11-27T05:02:14.326Z,4.67
2018-11-27T05:03:14.871Z,4.66
2018-11-27T05:04:14.305Z,4.65
2018-11-27T05:05:14.296Z,4.69
2018-11-27T05:06:14.345Z,4.59
2018-11-27T05:07:14.273Z,4.59
2018-11-27T05:08:14.258Z,4.63
2018-11-27T05:09:14.249Z,4.62
2018-11-27T05:10:14.243Z,4.55
2018-11-27T05:11:14.301Z,4.52
2018-11-27T05:12:14.222Z,4.50
2018-11-27T05:13:14.207Z,4.51
2018-11-27T05:14:14.195Z,4.58
2018-11-27T05:15:14.186Z,4.48
2018-11-27T05:16:14.251Z,4.54
2018-11-27T05:17:14.165Z,4.48
2018-11-27T05:18:14.156Z,4.41
2018-11-27T05:19:14.147Z,4.44
2018-11-27T05:20:14.135Z,4.42
2018-11-27T05:21:14.193Z,4.40
2018-11-27T05:22:14.117Z,4.40
2018-11-27T05:23:14.102Z,4.36
2018-11-27T05:24:14.865Z,4.40
2018-11-27T05:25:14.081Z,4.44
2018-11-27T05:26:14.136Z,4.40
2018-11-27T05:27:14.058Z,4.45
2018-11-27T05:28:14.049Z,4.44
2018-11-27T05:29:14.037Z,4.33
2018-11-27T05:30:14.028Z,4.29
2018-11-27T05:31:14.077Z,4.33
2018-11-27T05:32:14.033Z,4.32
2018-11-27T05:33:14.008Z,4.27
2018-11-27T05:34:13.991Z,4.30
2018-11-27T05:35:13.998Z,4.26
2018-11-27T05:36:14.078Z,4.24
2018-11-27T05:37:13.970Z,4.34
2018-11-27T05:38:13.944Z,4.32
2018-11-27T05:39:14.862Z,4.22
2018-11-27T05:40:13.934Z,4.26
2018-11-27T05:41:13.980Z,4.20
2018-11-27T05:42:13.903Z,4.26
2018-11-27T05:43:13.895Z,4.14
2018-11-27T05:44:13.899Z,4.04
2018-11-27T05:45:14.857Z,4.09
2018-11-27T05:46:13.929Z,4.16
2018-11-27T05:47:13.845Z,4.12
2018-11-27T05:48:13.837Z,4.11
2018-11-27T05:49:13.825Z,4.09
2018-11-27T05:50:13.820Z,4.06
2018-11-27T05:51:13.867Z,4.00
2018-11-27T05:52:13.837Z,4.06
2018-11-27T05:53:13.799Z,4.08
2018-11-27T05:54:13.772Z,3.98
2018-11-27T05:55:13.772Z,3.97
2018-11-27T05:56:13.857Z,3.98
2018-11-27T05:57:13.738Z,3.98
2018-11-27T05:58:13.738Z,3.90
2018-11-27T05:59:13.728Z,3.94
2018-11-27T06:00:14.371Z,3.93
2018-11-27T06:01:13.768Z,3.96
2018-11-27T06:02:13.727Z,3.86
2018-11-27T06:03:13.683Z,3.90
2018-11-27T06:04:13.674Z,3.86
2018-11-27T06:05:13.674Z,3.78
2018-11-27T06:06:13.958Z,3.80
2018-11-27T06:07:13.639Z,3.73
2018-11-27T06:08:13.652Z,3.69
2018-11-27T06:09:13.621Z,3.70
2018-11-27T06:10:13.620Z,3.75
2018-11-27T06:11:13.661Z,3.70
2018-11-27T06:12:13.593Z,3.72
2018-11-27T06:13:13.568Z,3.73
2018-11-27T06:14:13.557Z,3.72
2018-11-27T06:15:13.547Z,3.57
2018-11-27T06:16:13.605Z,3.73
2018-11-27T06:17:13.537Z,3.65
2018-11-27T06:18:13.529Z,3.55
2018-11-27T06:19:13.584Z,3.54
2018-11-27T06:20:13.504Z,3.66
2018-11-27T06:21:13.559Z,3.57
2018-11-27T06:22:13.494Z,3.50
2018-11-27T06:23:13.477Z,3.61
2018-11-27T06:24:13.452Z,3.50
2018-11-27T06:25:13.453Z,3.65
2018-11-27T06:26:13.504Z,3.65
2018-11-27T06:27:13.953Z,3.65
2018-11-27T06:28:13.407Z,3.58
2018-11-27T06:29:13.409Z,3.65
2018-11-27T06:30:13.389Z,3.52
2018-11-27T06:31:13.388Z,3.62
2018-11-27T06:32:13.438Z,3.58
2018-11-27T06:33:13.359Z,3.62
2018-11-27T06:34:13.344Z,3.65
2018-11-27T06:35:13.333Z,3.65
2018-11-27T06:36:13.326Z,3.68
2018-11-27T06:37:13.378Z,3.66
2018-11-27T06:38:13.301Z,3.62
2018-11-27T06:39:13.292Z,3.62
2018-11-27T06:40:13.282Z,3.60
2018-11-27T06:41:13.270Z,3.65
2018-11-27T06:42:13.319Z,3.73
2018-11-27T06:43:13.252Z,3.69
2018-11-27T06:44:13.243Z,3.75
2018-11-27T06:45:13.234Z,3.73
2018-11-27T06:46:13.222Z,3.80
2018-11-27T06:47:13.268Z,3.72
2018-11-27T06:48:13.849Z,3.68
2018-11-27T06:49:13.189Z,3.73
2018-11-27T06:50:13.183Z,3.76
2018-11-27T06:51:13.164Z,3.73
2018-11-27T06:52:13.228Z,3.69
2018-11-27T06:53:13.147Z,3.69
2018-11-27T06:54:13.134Z,3.69
2018-11-27T06:55:13.124Z,3.73
2018-11-27T06:56:13.141Z,3.86
2018-11-27T06:57:13.178Z,3.83
2018-11-27T06:58:13.099Z,3.79
2018-11-27T06:59:13.084Z,3.84
2018-11-27T07:00:13.103Z,3.78
2018-11-27T07:01:13.061Z,3.70
2018-11-27T07:02:13.110Z,3.78
2018-11-27T07:03:13.037Z,3.79
2018-11-27T07:04:13.028Z,3.75
2018-11-27T07:05:13.022Z,3.83
2018-11-27T07:06:13.006Z,3.79
2018-11-27T07:07:13.064Z,3.70
2018-11-27T07:08:12.989Z,3.75
2018-11-27T07:09:13.851Z,3.84
2018-11-27T07:10:12.963Z,3.76
2018-11-27T07:11:12.953Z,3.76
2018-11-27T07:12:13.005Z,3.88
2018-11-27T07:13:12.936Z,3.83
2018-11-27T07:14:12.932Z,3.84
2018-11-27T07:15:12.914Z,3.79
2018-11-27T07:16:12.900Z,3.90
2018-11-27T07:17:13.000Z,3.84
2018-11-27T07:18:12.881Z,3.87
2018-11-27T07:19:12.872Z,3.84
2018-11-27T07:20:12.856Z,3.93
2018-11-27T07:21:12.853Z,3.84
2018-11-27T07:22:12.897Z,3.84
2018-11-27T07:23:12.833Z,3.80
2018-11-27T07:24:12.813Z,3.73
2018-11-27T07:25:12.807Z,3.83
2018-11-27T07:26:12.795Z,3.84
2018-11-27T07:27:12.843Z,3.83
2018-11-27T07:28:12.785Z,3.96
2018-11-27T07:29:12.767Z,3.90
2018-11-27T07:30:13.341Z,3.83
2018-11-27T07:31:12.739Z,3.94
2018-11-27T07:32:12.798Z,3.90
2018-11-27T07:33:12.726Z,3.88
2018-11-27T07:34:12.706Z,4.00
2018-11-27T07:35:12.699Z,3.91
2018-11-27T07:36:12.693Z,3.94
2018-11-27T07:37:12.742Z,3.96
2018-11-27T07:38:12.670Z,3.93
2018-11-27T07:39:12.656Z,3.90
2018-11-27T07:40:12.646Z,3.94
2018-11-27T07:41:12.636Z,3.94
2018-11-27T07:42:12.689Z,3.91
2018-11-27T07:43:12.611Z,4.02
2018-11-27T07:44:12.606Z,3.97
2018-11-27T07:45:12.606Z,4.04
2018-11-27T07:46:12.581Z,4.05
2018-11-27T07:47:12.639Z,4.09
2018-11-27T07:48:12.581Z,4.11
2018-11-27T07:49:12.551Z,4.06
2018-11-27T07:50:12.537Z,4.05
2018-11-27T07:51:13.335Z,4.11
2018-11-27T07:52:12.581Z,4.12
2018-11-27T07:53:12.511Z,4.12
2018-11-27T07:54:12.522Z,4.09
2018-11-27T07:55:12.493Z,4.20
2018-11-27T07:56:12.479Z,4.18
2018-11-27T07:57:12.536Z,4.23
2018-11-27T07:58:12.456Z,4.27
2018-11-27T07:59:12.445Z,4.26
2018-11-27T08:00:12.431Z,4.23
2018-11-27T08:01:13.333Z,4.29
2018-11-27T08:02:12.484Z,4.30
2018-11-27T08:03:12.399Z,4.30
2018-11-27T08:04:12.393Z,4.36
2018-11-27T08:05:12.398Z,4.37
2018-11-27T08:06:12.371Z,4.37
2018-11-27T08:07:12.424Z,4.41
2018-11-27T08:08:12.387Z,4.47
2018-11-27T08:09:12.341Z,4.55
2018-11-27T08:10:12.332Z,4.51
2018-11-27T08:11:12.321Z,4.60
2018-11-27T08:12:12.929Z,4.62
2018-11-27T08:13:12.298Z,4.60
2018-11-27T08:14:12.282Z,4.63
2018-11-27T08:15:12.272Z,4.65
2018-11-27T08:16:12.262Z,4.65
2018-11-27T08:17:12.310Z,4.67
2018-11-27T08:18:12.278Z,4.70
2018-11-27T08:19:12.229Z,4.73
2018-11-27T08:20:12.219Z,4.82
2018-11-27T08:21:12.213Z,4.77
2018-11-27T08:22:12.267Z,4.86
2018-11-27T08:23:12.233Z,4.86
2018-11-27T08:24:12.178Z,4.94
2018-11-27T08:25:12.165Z,4.94
2018-11-27T08:26:12.177Z,4.99
2018-11-27T08:27:12.142Z,5.04
2018-11-27T08:28:12.202Z,5.15
2018-11-27T08:29:12.134Z,5.12
2018-11-27T08:30:12.115Z,5.15
2018-11-27T08:31:12.103Z,5.18
2018-11-27T08:32:12.096Z,5.15
2018-11-27T08:33:12.408Z,5.27
2018-11-27T08:34:12.073Z,5.30
2018-11-27T08:35:12.061Z,5.33
2018-11-27T08:36:12.050Z,5.35
2018-11-27T08:37:12.060Z,5.48
2018-11-27T08:38:12.087Z,5.40
2018-11-27T08:39:12.022Z,5.49
2018-11-27T08:40:12.008Z,5.51
2018-11-27T08:41:11.994Z,5.48
2018-11-27T08:42:11.998Z,5.57
2018-11-27T08:43:12.036Z,5.60
2018-11-27T08:44:11.966Z,5.67
2018-11-27T08:45:11.949Z,5.83
2018-11-27T08:46:11.979Z,6.15
2018-11-27T08:47:11.938Z,6.22
2018-11-27T08:48:11.995Z,6.51
2018-11-27T08:49:11.909Z,6.61
2018-11-27T08:50:11.898Z,6.80
2018-11-27T08:51:11.886Z,7.07
2018-11-27T08:52:11.882Z,7.30
2018-11-27T08:53:11.932Z,7.48
2018-11-27T08:54:12.829Z,7.71
2018-11-27T08:55:11.860Z,7.98
2018-11-27T08:56:11.841Z,8.22
2018-11-27T08:57:11.826Z,8.25
2018-11-27T08:58:11.883Z,8.26
2018-11-27T08:59:11.803Z,8.41
2018-11-27T09:00:11.794Z,8.50
2018-11-27T09:01:11.788Z,8.65
2018-11-27T09:02:11.773Z,8.61
2018-11-27T09:03:11.871Z,8.81
2018-11-27T09:04:11.749Z,8.94
2018-11-27T09:05:11.737Z,9.08
2018-11-27T09:06:11.725Z,9.11
2018-11-27T09:07:11.716Z,9.01
2018-11-27T09:08:11.773Z,8.95
2018-11-27T09:09:11.701Z,8.92
2018-11-27T09:10:11.694Z,9.08
2018-11-27T09:11:11.674Z,9.42
2018-11-27T09:12:11.663Z,9.79
2018-11-27T09:13:11.919Z,10.05
2018-11-27T09:14:11.639Z,10.14
2018-11-27T09:15:12.337Z,10.26
2018-11-27T09:16:11.622Z,10.25
2018-11-27T09:17:11.607Z,10.36
2018-11-27T09:18:11.663Z,10.51
2018-11-27T09:19:11.588Z,10.70
2018-11-27T09:20:11.579Z,10.74
2018-11-27T09:21:11.570Z,10.86
2018-11-27T09:22:12.850Z,10.76
2018-11-27T09:23:11.610Z,10.67
2018-11-27T09:24:11.535Z,10.45
2018-11-27T09:25:11.520Z,10.20
2018-11-27T09:26:11.517Z,9.94
2018-11-27T09:27:11.506Z,9.84
2018-11-27T09:28:11.559Z,9.79
2018-11-27T09:29:11.479Z,9.75
2018-11-27T09:30:11.475Z,9.68
2018-11-27T09:31:11.463Z,9.69
2018-11-27T09:32:11.446Z,9.75
2018-11-27T09:33:11.505Z,9.75
2018-11-27T09:34:11.425Z,9.65
2018-11-27T09:35:11.416Z,9.72
2018-11-27T09:36:12.322Z,9.84
2018-11-27T09:37:11.395Z,9.81
2018-11-27T09:38:11.450Z,10.01
2018-11-27T09:39:11.374Z,10.14
2018-11-27T09:40:11.368Z,10.33
2018-11-27T09:41:11.351Z,10.51
2018-11-27T09:42:11.344Z,10.74
2018-11-27T09:43:11.393Z,11.00
2018-11-27T09:44:11.317Z,11.51
2018-11-27T09:45:11.308Z,11.64
2018-11-27T09:46:11.314Z,11.95
2018-11-27T09:47:11.289Z,11.98
2018-11-27T09:48:11.345Z,12.09
2018-11-27T09:49:11.265Z,12.20
2018-11-27T09:50:11.255Z,12.32
2018-11-27T09:51:11.242Z,12.62
2018-11-27T09:52:11.233Z,12.90
2018-11-27T09:53:11.295Z,13.07
2018-11-27T09:54:11.211Z,13.01
2018-11-27T09:55:11.199Z,12.97
2018-11-27T09:56:11.190Z,12.74
2018-11-27T09:57:11.823Z,12.28
2018-11-27T09:58:11.231Z,12.10
2018-11-27T09:59:11.157Z,11.67
2018-11-27T10:00:11.232Z,11.29
2018-11-27T10:01:11.134Z,11.09
2018-11-27T10:02:11.827Z,10.88
2018-11-27T10:03:11.177Z,10.73
2018-11-27T10:04:11.102Z,10.47
2018-11-27T10:05:11.095Z,10.33
2018-11-27T10:06:11.083Z,10.22
2018-11-27T10:07:11.077Z,10.23
2018-11-27T10:08:11.132Z,10.01
2018-11-27T10:09:11.051Z,9.93
2018-11-27T10:10:11.065Z,9.78
2018-11-27T10:11:11.027Z,9.78
2018-11-27T10:12:11.020Z,9.72
2018-11-27T10:13:11.001Z,9.71
2018-11-27T10:14:11.119Z,9.75
2018-11-27T10:15:10.988Z,9.58
2018-11-27T10:16:10.974Z,9.54
2018-11-27T10:17:10.965Z,9.57
2018-11-27T10:18:11.824Z,9.56
2018-11-27T10:19:11.007Z,9.47
2018-11-27T10:20:10.930Z,9.43
2018-11-27T10:21:10.922Z,9.51
2018-11-27T10:22:10.924Z,9.47
2018-11-27T10:23:10.903Z,9.46
2018-11-27T10:24:10.951Z,9.53
2018-11-27T10:25:10.878Z,9.66
2018-11-27T10:26:10.866Z,9.58
2018-11-27T10:27:10.857Z,9.54
2018-11-27T10:28:10.842Z,9.54
2018-11-27T10:29:10.903Z,9.42
2018-11-27T10:30:10.827Z,9.51
2018-11-27T10:31:10.813Z,9.31
2018-11-27T10:32:10.801Z,9.18
2018-11-27T10:33:10.792Z,9.02
2018-11-27T10:34:10.851Z,8.94
2018-11-27T10:35:10.768Z,8.80
2018-11-27T10:36:10.758Z,8.79
2018-11-27T10:37:10.747Z,8.80
2018-11-27T10:38:10.738Z,8.66
2018-11-27T10:39:10.893Z,8.65
2018-11-27T10:40:10.714Z,8.66
2018-11-27T10:41:10.729Z,8.58
2018-11-27T10:42:10.698Z,8.59
2018-11-27T10:43:10.688Z,8.62
2018-11-27T10:44:10.771Z,8.61
2018-11-27T10:45:10.663Z,8.55
2018-11-27T10:46:10.695Z,8.55
2018-11-27T10:47:10.640Z,8.50
2018-11-27T10:48:10.632Z,8.53
2018-11-27T10:49:10.683Z,8.58
2018-11-27T10:50:10.613Z,8.59
2018-11-27T10:51:10.598Z,8.53
2018-11-27T10:52:10.587Z,8.62
2018-11-27T10:53:10.575Z,8.50
2018-11-27T10:54:10.632Z,8.56
2018-11-27T10:55:10.557Z,8.48
2018-11-27T10:56:10.545Z,8.50
2018-11-27T10:57:10.533Z,8.55
2018-11-27T10:58:10.521Z,8.48
2018-11-27T10:59:10.579Z,8.44
2018-11-27T11:00:11.329Z,8.44
2018-11-27T11:01:10.488Z,8.36
2018-11-27T11:02:10.516Z,8.36
2018-11-27T11:03:10.467Z,8.43
2018-11-27T11:04:10.528Z,8.40
2018-11-27T11:05:10.449Z,8.43
2018-11-27T11:06:10.435Z,8.48
2018-11-27T11:07:10.423Z,8.48
2018-11-27T11:08:10.412Z,8.59
2018-11-27T11:09:10.466Z,8.56
2018-11-27T11:10:10.393Z,8.61
2018-11-27T11:11:10.384Z,8.59
2018-11-27T11:12:10.370Z,8.68
2018-11-27T11:13:10.361Z,8.68
2018-11-27T11:14:10.425Z,8.68
2018-11-27T11:15:10.337Z,8.65
2018-11-27T11:16:10.325Z,8.77
2018-11-27T11:17:10.321Z,8.62
2018-11-27T11:18:10.307Z,8.59
2018-11-27T11:19:10.353Z,8.61
2018-11-27T11:20:10.283Z,8.59
2018-11-27T11:21:10.821Z,8.62
2018-11-27T11:22:10.261Z,8.56
2018-11-27T11:23:10.248Z,8.59
2018-11-27T11:24:10.302Z,8.74
2018-11-27T11:25:10.241Z,8.68
2018-11-27T11:26:10.263Z,8.79
2018-11-27T11:27:10.214Z,8.71
2018-11-27T11:28:10.197Z,8.86
2018-11-27T11:29:10.253Z,8.87
2018-11-27T11:30:10.178Z,8.95
2018-11-27T11:31:10.176Z,8.81
2018-11-27T11:32:10.157Z,8.86
2018-11-27T11:33:10.143Z,8.79
2018-11-27T11:34:10.198Z,8.59
2018-11-27T11:35:10.127Z,8.55
2018-11-27T11:36:10.111Z,8.52
2018-11-27T11:37:10.103Z,8.61
2018-11-27T11:38:10.092Z,8.55
2018-11-27T11:39:10.149Z,8.58
2018-11-27T11:40:10.711Z,8.55
2018-11-27T11:41:10.061Z,8.58
2018-11-27T11:42:10.045Z,8.59
2018-11-27T11:43:10.036Z,8.58
2018-11-27T11:44:10.093Z,8.52
2018-11-27T11:45:10.012Z,8.59
2018-11-27T11:46:10.001Z,8.47
2018-11-27T11:47:09.991Z,8.45
2018-11-27T11:48:09.987Z,8.48
2018-11-27T11:49:10.037Z,8.47
2018-11-27T11:50:09.972Z,8.44
2018-11-27T11:51:09.950Z,8.45
2018-11-27T11:52:09.937Z,8.41
2018-11-27T11:53:09.937Z,8.40
2018-11-27T11:54:09.983Z,8.34
2018-11-27T11:55:09.908Z,8.29
2018-11-27T11:56:09.896Z,8.28
2018-11-27T11:57:09.890Z,8.19
2018-11-27T11:58:09.872Z,8.16
2018-11-27T11:59:09.929Z,8.26
2018-11-27T12:00:09.854Z,8.20
2018-11-27T12:01:09.841Z,8.22
2018-11-27T12:02:09.833Z,8.26
2018-11-27T12:03:09.819Z,8.30
2018-11-27T12:04:10.390Z,8.33
2018-11-27T12:05:09.800Z,8.43
2018-11-27T12:06:09.788Z,8.41
2018-11-27T12:07:09.777Z,8.34
2018-11-27T12:08:09.765Z,8.33
2018-11-27T12:09:09.822Z,8.34
2018-11-27T12:10:09.808Z,8.40
2018-11-27T12:11:09.737Z,8.47
2018-11-27T12:12:09.724Z,8.68
2018-11-27T12:13:09.713Z,8.87
2018-11-27T12:14:09.705Z,9.11
2018-11-27T12:15:09.788Z,9.20
2018-11-27T12:16:09.741Z,9.26
2018-11-27T12:17:09.672Z,9.36
2018-11-27T12:18:09.663Z,9.50
2018-11-27T12:19:09.645Z,9.61
2018-11-27T12:20:09.698Z,9.60
2018-11-27T12:21:09.627Z,9.74
2018-11-27T12:22:09.621Z,9.78
2018-11-27T12:23:09.736Z,9.87
2018-11-27T12:24:09.600Z,9.94
2018-11-27T12:25:09.880Z,10.17
2018-11-27T12:26:09.571Z,10.15
2018-11-27T12:27:09.563Z,10.12
2018-11-27T12:28:14.368Z,10.18
2018-11-27T12:29:12.573Z,10.27
2018-11-27T12:30:09.600Z,10.15
2018-11-27T12:31:09.518Z,9.94
2018-11-27T12:32:09.509Z,9.72
2018-11-27T12:33:09.501Z,9.58
2018-11-27T12:34:09.488Z,9.54
2018-11-27T12:35:10.229Z,9.50
2018-11-27T12:36:09.467Z,9.50
2018-11-27T12:37:09.459Z,9.46
2018-11-27T12:38:09.443Z,9.40
2018-11-27T12:39:09.431Z,9.42
2018-11-27T12:40:09.486Z,9.29
2018-11-27T12:41:10.343Z,9.21
2018-11-27T12:42:09.401Z,9.20
2018-11-27T12:43:09.387Z,9.10
2018-11-27T12:44:09.382Z,9.17
2018-11-27T12:45:09.427Z,9.01
2018-11-27T12:46:10.311Z,9.08
2018-11-27T12:47:09.344Z,8.99
2018-11-27T12:48:09.367Z,9.01
2018-11-27T12:49:09.337Z,8.94
2018-11-27T12:50:09.379Z,8.92
2018-11-27T12:51:09.730Z,8.86
2018-11-27T12:52:09.294Z,8.91
2018-11-27T12:53:09.279Z,8.87
2018-11-27T12:54:09.270Z,8.83
2018-11-27T12:55:09.330Z,8.77
2018-11-27T12:56:09.250Z,8.73
2018-11-27T12:57:09.239Z,8.68
2018-11-27T12:58:09.228Z,8.66
2018-11-27T12:59:09.217Z,8.53
2018-11-27T13:00:09.271Z,8.53
2018-11-27T13:01:09.670Z,8.53
2018-11-27T13:02:09.184Z,8.47
2018-11-27T13:03:09.175Z,8.45
2018-11-27T13:04:09.166Z,8.43
2018-11-27T13:05:09.221Z,8.40
2018-11-27T13:06:09.140Z,8.43
2018-11-27T13:07:09.806Z,8.33
2018-11-27T13:08:09.119Z,8.30
2018-11-27T13:09:09.109Z,8.29
2018-11-27T13:10:09.168Z,8.25
2018-11-27T13:11:11.520Z,8.20
2018-11-27T13:12:09.077Z,8.18
2018-11-27T13:13:09.066Z,8.12
2018-11-27T13:14:09.053Z,8.07
2018-11-27T13:15:09.109Z,8.15
2018-11-27T13:16:09.038Z,8.07
2018-11-27T13:17:09.023Z,8.07